sensor_id;sensor_type;location;lat;lon;timestamp;P1;durP1;ratioP1;P2;durP2;ratioP2
9489;SDS011;4783;42.734;23.288;2023-03-23T08:35:13;30.55;;;23.30;;
9489;SDS011;4783;42.734;23.288;2023-03-23T08:37:40;33.40;;;23.55;;
9489;SDS011;4783;42.734;23.288;2023-03-23T08:40:06;33.55;;;22.52;;
9489;SDS011;4783;42.734;23.288;2023-03-23T08:42:34;28.20;;;21.02;;
9489;SDS011;4783;42.734;23.288;2023-03-23T08:44:59;30.15;;;22.30;;
9489;SDS011;4783;42.734;23.288;2023-03-23T08:47:26;30.85;;;21.17;;
9489;SDS011;4783;42.734;23.288;2023-03-23T08:49:51;37.05;;;20.73;;
9489;SDS011;4783;42.734;23.288;2023-03-23T08:52:19;30.75;;;22.75;;
9489;SDS011;4783;42.734;23.288;2023-03-23T08:54:44;32.33;;;23.60;;
9489;SDS011;4783;42.734;23.288;2023-03-23T08:57:12;28.88;;;19.63;;
9489;SDS011;4783;42.734;23.288;2023-03-23T08:59:37;25.55;;;18.77;;
9489;SDS011;4783;42.734;23.288;2023-03-23T09:02:02;23.25;;;14.93;;
9489;SDS011;4783;42.734;23.288;2023-03-23T09:06:49;17.95;;;13.43;;
9489;SDS011;4783;42.734;23.288;2023-03-23T09:09:15;17.15;;;14.25;;
9489;SDS011;4783;42.734;23.288;2023-03-23T09:11:40;19.20;;;13.85;;
9489;SDS011;4783;42.734;23.288;2023-03-23T09:14:06;18.80;;;14.88;;
9489;SDS011;4783;42.734;23.288;2023-03-23T09:16:32;17.77;;;12.07;;
9489;SDS011;4783;42.734;23.288;2023-03-23T09:18:57;13.90;;;11.98;;
9489;SDS011;4783;42.734;23.288;2023-03-23T09:21:23;17.38;;;11.55;;
9489;SDS011;4783;42.734;23.288;2023-03-23T09:23:49;12.80;;;11.05;;
9489;SDS011;4783;42.734;23.288;2023-03-23T09:26:15;14.70;;;12.02;;
9489;SDS011;4783;42.734;23.288;2023-03-23T09:28:40;15.40;;;11.55;;
9489;SDS011;4783;42.734;23.288;2023-03-23T09:31:06;19.23;;;11.60;;
9489;SDS011;4783;42.734;23.288;2023-03-23T09:33:31;13.00;;;10.07;;
9489;SDS011;4783;42.734;23.288;2023-03-23T09:36:00;12.98;;;9.90;;
9489;SDS011;4783;42.734;23.288;2023-03-23T09:38:27;11.15;;;8.52;;
9489;SDS011;4783;42.734;23.288;2023-03-23T09:41:01;11.77;;;9.60;;
9489;SDS011;4783;42.734;23.288;2023-03-23T09:46:14;18.00;;;10.55;;
9489;SDS011;4783;42.734;23.288;2023-03-23T09:51:26;13.82;;;11.10;;
9489;SDS011;4783;42.734;23.288;2023-03-23T09:53:55;10.65;;;9.25;;
9489;SDS011;4783;42.734;23.288;2023-03-23T09:56:22;10.90;;;9.52;;
9489;SDS011;4783;42.734;23.288;2023-03-23T09:58:53;15.80;;;10.45;;
9489;SDS011;4783;42.734;23.288;2023-03-23T10:01:26;10.20;;;9.02;;
9489;SDS011;4783;42.734;23.288;2023-03-23T10:03:58;17.60;;;10.68;;
9489;SDS011;4783;42.734;23.288;2023-03-23T10:06:25;13.80;;;10.43;;
9489;SDS011;4783;42.734;23.288;2023-03-23T10:08:51;12.05;;;10.80;;
9489;SDS011;4783;42.734;23.288;2023-03-23T10:16:23;13.85;;;11.32;;
9489;SDS011;4783;42.734;23.288;2023-03-23T10:18:53;11.82;;;10.07;;
9489;SDS011;4783;42.734;23.288;2023-03-23T10:21:20;11.60;;;10.27;;
9489;SDS011;4783;42.734;23.288;2023-03-23T10:23:51;12.85;;;9.48;;
9489;SDS011;4783;42.734;23.288;2023-03-23T10:28:44;12.93;;;11.05;;
9489;SDS011;4783;42.734;23.288;2023-03-23T10:31:11;14.00;;;8.57;;
9489;SDS011;4783;42.734;23.288;2023-03-23T10:33:39;9.23;;;8.27;;
9489;SDS011;4783;42.734;23.288;2023-03-23T10:38:49;12.05;;;9.55;;
9489;SDS011;4783;42.734;23.288;2023-03-23T10:41:16;11.05;;;9.02;;
9489;SDS011;4783;42.734;23.288;2023-03-23T10:43:43;13.23;;;8.45;;
9489;SDS011;4783;42.734;23.288;2023-03-23T10:48:37;11.10;;;8.90;;
9489;SDS011;4783;42.734;23.288;2023-03-23T10:51:03;12.18;;;8.65;;
9489;SDS011;4783;42.734;23.288;2023-03-23T10:53:31;10.15;;;9.05;;
9489;SDS011;4783;42.734;23.288;2023-03-23T10:55:57;10.18;;;9.05;;
9489;SDS011;4783;42.734;23.288;2023-03-23T10:58:27;10.00;;;9.05;;
9489;SDS011;4783;42.734;23.288;2023-03-23T11:00:57;13.45;;;9.80;;
9489;SDS011;4783;42.734;23.288;2023-03-23T11:03:24;10.30;;;9.15;;
9489;SDS011;4783;42.734;23.288;2023-03-23T11:05:52;10.18;;;9.05;;
9489;SDS011;4783;42.734;23.288;2023-03-23T11:08:19;9.82;;;8.73;;
9489;SDS011;4783;42.734;23.288;2023-03-23T11:13:18;9.60;;;8.63;;
9489;SDS011;4783;42.734;23.288;2023-03-23T11:15:45;12.40;;;8.82;;
9489;SDS011;4783;42.734;23.288;2023-03-23T11:20:47;11.85;;;9.32;;
9489;SDS011;4783;42.734;23.288;2023-03-23T11:23:23;11.02;;;9.25;;
9489;SDS011;4783;42.734;23.288;2023-03-23T11:28:31;12.05;;;8.82;;
9489;SDS011;4783;42.734;23.288;2023-03-23T11:30:57;8.95;;;8.05;;
9489;SDS011;4783;42.734;23.288;2023-03-23T11:33:23;10.35;;;9.07;;
9489;SDS011;4783;42.734;23.288;2023-03-23T11:35:50;9.27;;;8.38;;
9489;SDS011;4783;42.734;23.288;2023-03-23T11:38:18;10.32;;;9.13;;
9489;SDS011;4783;42.734;23.288;2023-03-23T11:40:47;10.35;;;8.25;;
9489;SDS011;4783;42.734;23.288;2023-03-23T11:43:14;9.82;;;8.50;;
9489;SDS011;4783;42.734;23.288;2023-03-23T11:48:18;12.50;;;9.13;;
9489;SDS011;4783;42.734;23.288;2023-03-23T11:50:52;8.60;;;7.43;;
9489;SDS011;4783;42.734;23.288;2023-03-23T11:58:46;7.65;;;6.90;;
9489;SDS011;4783;42.734;23.288;2023-03-23T12:06:50;10.57;;;7.07;;
9489;SDS011;4783;42.734;23.288;2023-03-23T12:11:51;7.82;;;6.60;;
9489;SDS011;4783;42.734;23.288;2023-03-23T12:21:53;9.68;;;6.75;;
9489;SDS011;4783;42.734;23.288;2023-03-23T12:35:04;9.95;;;7.05;;
9489;SDS011;4783;42.734;23.288;2023-03-23T12:48:10;8.80;;;6.20;;
9489;SDS011;4783;42.734;23.288;2023-03-23T12:56:17;6.93;;;6.20;;
9489;SDS011;4783;42.734;23.288;2023-03-23T12:58:18;9.40;;;5.93;;
9489;SDS011;4783;42.734;23.288;2023-03-23T13:01:04;6.68;;;5.45;;
9489;SDS011;4783;42.734;23.288;2023-03-23T13:11:39;7.85;;;5.20;;
9489;SDS011;4783;42.734;23.288;2023-03-23T13:14:14;8.13;;;5.13;;
9489;SDS011;4783;42.734;23.288;2023-03-23T13:16:46;8.68;;;5.60;;
9489;SDS011;4783;42.734;23.288;2023-03-23T13:19:25;5.90;;;4.97;;
9489;SDS011;4783;42.734;23.288;2023-03-23T13:24:21;6.95;;;5.05;;
9489;SDS011;4783;42.734;23.288;2023-03-23T13:26:48;5.90;;;5.10;;
9489;SDS011;4783;42.734;23.288;2023-03-23T13:31:39;6.20;;;5.35;;
9489;SDS011;4783;42.734;23.288;2023-03-23T13:34:10;5.45;;;4.90;;
9489;SDS011;4783;42.734;23.288;2023-03-23T13:36:37;13.48;;;5.53;;
9489;SDS011;4783;42.734;23.288;2023-03-23T13:39:04;5.18;;;4.65;;
9489;SDS011;4783;42.734;23.288;2023-03-23T13:41:32;7.63;;;4.70;;
9489;SDS011;4783;42.734;23.288;2023-03-23T13:44:05;5.45;;;4.60;;
9489;SDS011;4783;42.734;23.288;2023-03-23T13:46:39;6.32;;;4.95;;
9489;SDS011;4783;42.734;23.288;2023-03-23T13:49:18;7.30;;;5.20;;
9489;SDS011;4783;42.734;23.288;2023-03-23T14:01:56;7.60;;;4.90;;
9489;SDS011;4783;42.734;23.288;2023-03-23T14:04:22;7.57;;;4.50;;
9489;SDS011;4783;42.734;23.288;2023-03-23T14:06:49;6.40;;;4.68;;
9489;SDS011;4783;42.734;23.288;2023-03-23T14:11:47;7.10;;;4.75;;
9489;SDS011;4783;42.734;23.288;2023-03-23T14:14:14;9.27;;;4.88;;
9489;SDS011;4783;42.734;23.288;2023-03-23T14:16:48;5.53;;;4.55;;
9489;SDS011;4783;42.734;23.288;2023-03-23T14:19:18;7.68;;;4.80;;
9489;SDS011;4783;42.734;23.288;2023-03-23T14:22:18;6.28;;;4.60;;
9489;SDS011;4783;42.734;23.288;2023-03-23T14:24:39;7.68;;;4.68;;
9489;SDS011;4783;42.734;23.288;2023-03-23T14:29:30;6.03;;;4.60;;
9489;SDS011;4783;42.734;23.288;2023-03-23T14:31:55;6.22;;;4.47;;
9489;SDS011;4783;42.734;23.288;2023-03-23T14:34:22;6.32;;;5.72;;
9489;SDS011;4783;42.734;23.288;2023-03-23T14:36:48;9.18;;;4.40;;
9489;SDS011;4783;42.734;23.288;2023-03-23T14:39:20;5.13;;;4.32;;
9489;SDS011;4783;42.734;23.288;2023-03-23T14:41:47;7.10;;;5.32;;
9489;SDS011;4783;42.734;23.288;2023-03-23T14:44:13;8.93;;;5.45;;
9489;SDS011;4783;42.734;23.288;2023-03-23T14:46:40;6.78;;;4.70;;
9489;SDS011;4783;42.734;23.288;2023-03-23T14:49:06;7.75;;;4.80;;
9489;SDS011;4783;42.734;23.288;2023-03-23T14:51:31;5.55;;;4.97;;
9489;SDS011;4783;42.734;23.288;2023-03-23T14:53:58;5.25;;;4.65;;
9489;SDS011;4783;42.734;23.288;2023-03-23T14:56:23;8.38;;;5.10;;
9489;SDS011;4783;42.734;23.288;2023-03-23T14:58:53;8.50;;;4.85;;
9489;SDS011;4783;42.734;23.288;2023-03-23T15:01:19;12.00;;;5.13;;
9489;SDS011;4783;42.734;23.288;2023-03-23T15:03:49;9.70;;;4.90;;
9489;SDS011;4783;42.734;23.288;2023-03-23T15:06:17;6.57;;;4.30;;
9489;SDS011;4783;42.734;23.288;2023-03-23T15:08:43;7.55;;;4.25;;
9489;SDS011;4783;42.734;23.288;2023-03-23T15:11:20;4.80;;;4.30;;
9489;SDS011;4783;42.734;23.288;2023-03-23T15:13:50;6.38;;;5.30;;
9489;SDS011;4783;42.734;23.288;2023-03-23T15:16:20;11.57;;;5.22;;
9489;SDS011;4783;42.734;23.288;2023-03-23T15:19:06;9.38;;;4.40;;
9489;SDS011;4783;42.734;23.288;2023-03-23T15:21:32;5.47;;;4.38;;
9489;SDS011;4783;42.734;23.288;2023-03-23T15:23:59;6.15;;;5.15;;
9489;SDS011;4783;42.734;23.288;2023-03-23T15:26:27;8.63;;;4.90;;
9489;SDS011;4783;42.734;23.288;2023-03-23T15:31:33;7.00;;;5.18;;
9489;SDS011;4783;42.734;23.288;2023-03-23T15:34:00;7.10;;;6.00;;
9489;SDS011;4783;42.734;23.288;2023-03-23T15:36:30;6.03;;;4.85;;
9489;SDS011;4783;42.734;23.288;2023-03-23T15:38:56;6.70;;;5.57;;
9489;SDS011;4783;42.734;23.288;2023-03-23T15:41:23;10.00;;;6.32;;
